Flom, Minnesota
Current Conditions -  °F | °C
As of 9:15 PM on Saturday 20 Dec 2014 (Local Time) from K3N8 Reporting Station
Haze Haze  
Wind Chill: 21°   Ceiling: 500
Heat Index: 30°   Visibility: 5mi
Dew Point: 28°   Wind: 10mph
Humidity: 94%   Direction: 170°S
Pressure: 29.91"   Gusts: 20mph
Location:  47.17°N, 96.13°W
Report Text: K3N8 210315Z AUTO 17009G17KT 5SM BR OVC005 M01/M02 A2991 RMK AO2 T10121020
Loading
Personal Weather Stations






























Interactive Weather Map New forecast layout! Learn more

10-Day Weather Forecast

Advertisements
Track Severe Weather on mobile